Time;durP1;ratioP1;P1;durP2;ratioP2;P2;SDS_P1;SDS_P2;PMS_P1;PMS_P2;Temp;Humidity;BMP_temperature;BMP_pressure;BME280_temperature;BME280_humidity;BME280_pressure;Samples;Min_cycle;Max_cycle;Signal;HPM_P1;HPM_P2
2022/07/22 00:00:49;;;;;;;6.60;3.15;;;;;;;20.12;71.83;99985.45;1739839;81;21056;-62
2022/07/22 00:03:20;;;;;;;3.47;2.87;;;;;;;20.11;72.26;99985.17;1740547;81;21020;-61
2022/07/22 00:05:49;;;;;;;4.72;3.37;;;;;;;20.07;72.57;99981.26;1740675;82;21071;-62
2022/07/22 00:08:18;;;;;;;4.33;3.50;;;;;;;20.05;72.95;99982.92;1779759;80;21020;-63
2022/07/22 00:10:48;;;;;;;3.90;3.33;;;;;;;20.04;73.10;99998.48;1780297;79;21473;-61
2022/07/22 00:13:18;;;;;;;4.08;3.17;;;;;;;20.03;73.34;99994.88;1742606;81;21416;-62
2022/07/22 00:15:56;;;;;;;6.95;3.42;;;;;;;20.00;73.53;99995.96;1776363;79;21439;-62
2022/07/22 00:18:29;;;;;;;6.30;3.55;;;;;;;19.97;73.92;100003.45;1741742;81;21500;-62
2022/07/22 00:21:00;;;;;;;5.33;3.70;;;;;;;19.89;74.42;100002.86;1742856;82;21047;-62
2022/07/22 00:23:30;;;;;;;5.87;3.60;;;;;;;19.83;74.69;100002.54;1763767;80;21052;-62
2022/07/22 00:26:00;;;;;;;6.47;3.40;;;;;;;19.79;75.00;100000.01;1742186;82;21011;-62
2022/07/22 00:28:31;;;;;;;5.92;3.80;;;;;;;19.77;75.07;100000.83;1763318;80;21047;-61
2022/07/22 00:31:00;;;;;;;5.78;3.58;;;;;;;19.75;75.07;99996.65;1738538;81;21018;-62
2022/07/22 00:33:31;;;;;;;5.95;3.70;;;;;;;19.72;75.12;99993.84;1728996;83;20982;-61
2022/07/22 00:36:02;;;;;;;6.80;3.95;;;;;;;19.71;75.19;100000.52;1729268;82;21041;-60
2022/07/22 00:38:33;;;;;;;5.10;3.83;;;;;;;19.70;75.15;100004.40;1728884;83;21316;-62
2022/07/22 00:41:04;;;;;;;5.50;3.90;;;;;;;19.67;75.18;100009.11;1728570;82;21081;-60
2022/07/22 00:43:57;;;;;;;5.92;3.62;;;;;;;19.57;75.25;100011.26;1723119;82;21028;-60
2022/07/22 00:46:26;;;;;;;6.05;3.80;;;;;;;19.54;75.28;100005.39;1733838;83;21044;-62
2022/07/22 00:48:58;;;;;;;5.37;3.55;;;;;;;19.49;75.35;100009.46;1733709;83;21047;-61
2022/07/22 00:51:29;;;;;;;5.28;3.52;;;;;;;19.46;75.33;100009.44;1744482;82;21087;-61
2022/07/22 00:54:01;;;;;;;6.47;3.90;;;;;;;19.42;75.44;100006.91;1726096;83;21331;-61
2022/07/22 00:56:32;;;;;;;10.53;4.78;;;;;;;19.39;75.53;100010.22;1667873;86;21471;-61
2022/07/22 00:59:04;;;;;;;5.17;3.75;;;;;;;19.36;75.58;100012.14;1748129;79;21062;-62
2022/07/22 01:01:35;;;;;;;5.50;4.05;;;;;;;19.31;75.64;100010.16;1718562;83;21098;-60
2022/07/22 01:04:05;;;;;;;4.95;3.35;;;;;;;19.29;75.70;100005.41;1752354;82;21019;-61
2022/07/22 01:06:36;;;;;;;5.83;3.65;;;;;;;19.29;75.76;100004.58;1763673;80;21493;-62
2022/07/22 01:09:06;;;;;;;5.17;3.50;;;;;;;19.25;75.88;100003.43;1783035;79;21620;-63
2022/07/22 01:11:37;;;;;;;6.55;3.90;;;;;;;19.22;75.95;99998.41;1783120;80;21023;-61
2022/07/22 01:14:07;;;;;;;4.72;3.50;;;;;;;19.21;75.93;99999.50;1783216;80;21038;-62
2022/07/22 01:16:38;;;;;;;4.80;3.60;;;;;;;19.20;75.93;100005.61;1770427;79;21011;-61
2022/07/22 01:19:08;;;;;;;4.35;3.47;;;;;;;19.20;75.96;100000.61;1752493;82;21019;-63
2022/07/22 01:21:40;;;;;;;4.55;3.35;;;;;;;19.21;76.03;100005.89;1752265;82;21083;-62
2022/07/22 01:24:11;;;;;;;6.65;3.50;;;;;;;19.17;76.13;100006.14;1733846;83;21020;-62
2022/07/22 01:26:43;;;;;;;4.47;3.60;;;;;;;19.16;76.30;100005.02;1733759;83;21070;-63
2022/07/22 01:29:14;;;;;;;4.30;3.40;;;;;;;19.11;76.39;100004.41;1772821;79;21062;-62
2022/07/22 01:31:44;;;;;;;5.37;3.35;;;;;;;19.10;76.48;100005.52;1815621;79;21039;-63
2022/07/22 01:34:15;;;;;;;4.47;3.42;;;;;;;19.10;76.61;100004.13;1810361;79;21078;-61
2022/07/22 01:36:47;;;;;;;5.15;4.10;;;;;;;19.08;76.70;100003.55;1780760;79;21090;-63
2022/07/22 01:39:17;;;;;;;5.30;3.77;;;;;;;19.09;76.82;100008.01;1766290;79;21447;-61
2022/07/22 01:41:47;;;;;;;5.83;3.37;;;;;;;19.09;76.83;100007.17;1770451;81;21075;-62
2022/07/22 01:44:17;;;;;;;5.33;3.60;;;;;;;19.08;76.83;100010.50;1770435;81;21075;-61
2022/07/22 01:46:46;;;;;;;5.35;3.62;;;;;;;19.08;76.87;100020.77;1755681;80;21019;-61
2022/07/22 01:49:17;;;;;;;4.62;3.80;;;;;;;19.06;76.95;100019.64;1733778;82;21020;-62
2022/07/22 01:51:47;;;;;;;5.03;3.72;;;;;;;19.04;77.12;100021.84;1735933;82;21060;-62
2022/07/22 01:54:18;;;;;;;5.30;3.85;;;;;;;19.00;77.22;100016.53;1774076;80;21459;-60
2022/07/22 01:56:49;;;;;;;5.17;3.87;;;;;;;19.00;77.27;100020.69;1743909;81;21051;-61
2022/07/22 01:59:18;;;;;;;6.42;3.62;;;;;;;18.99;77.35;100021.24;1747145;81;21067;-61
2022/07/22 02:01:48;;;;;;;5.28;4.03;;;;;;;18.98;77.34;100015.95;1718898;82;21039;-61
2022/07/22 02:04:19;;;;;;;5.37;3.70;;;;;;;18.97;77.42;100019.83;1752027;82;21019;-61
2022/07/22 02:06:51;;;;;;;6.00;4.37;;;;;;;18.93;77.63;100017.29;1753427;79;21103;-62
2022/07/22 02:09:21;;;;;;;6.25;3.90;;;;;;;18.92;77.75;100030.33;1765431;79;21051;-62
2022/07/22 02:11:52;;;;;;;5.45;3.72;;;;;;;18.93;77.82;100029.23;1731085;83;21067;-60
2022/07/22 02:14:24;;;;;;;5.37;3.75;;;;;;;18.90;77.92;100024.75;1734554;81;21051;-63
2022/07/22 02:16:55;;;;;;;5.97;3.45;;;;;;;18.88;78.01;100031.12;1731188;83;21028;-61
2022/07/22 02:19:26;;;;;;;6.37;4.10;;;;;;;18.88;78.09;100028.34;1733403;82;21067;-62
2022/07/22 02:21:57;;;;;;;4.87;3.58;;;;;;;18.89;78.10;100039.73;1767914;81;21082;-62
2022/07/22 02:24:28;;;;;;;9.10;4.50;;;;;;;18.88;78.10;100034.73;1769064;79;21023;-62
2022/07/22 02:26:58;;;;;;;5.53;3.77;;;;;;;18.85;78.25;100041.33;1731930;80;21048;-62
2022/07/22 02:29:28;;;;;;;9.18;4.20;;;;;;;18.81;78.36;100037.39;1785298;80;21007;-60
2022/07/22 02:32:01;;;;;;;6.53;4.20;;;;;;;18.80;78.57;100038.48;1748739;82;21464;-62
2022/07/22 02:34:32;;;;;;;9.50;4.53;;;;;;;18.78;78.70;100042.92;1740898;81;21568;-62
2022/07/22 02:37:02;;;;;;;4.92;3.75;;;;;;;18.76;78.85;100042.34;1733423;81;21053;-63
2022/07/22 02:39:32;;;;;;;5.00;4.12;;;;;;;18.75;79.01;100043.98;1746927;82;21041;-61
2022/07/22 02:42:01;;;;;;;7.25;4.40;;;;;;;18.71;79.22;100046.45;1748108;82;21036;-63
2022/07/22 02:44:32;;;;;;;7.65;4.08;;;;;;;18.73;79.28;100048.96;1777942;80;21075;-62
2022/07/22 02:47:02;;;;;;;6.78;4.03;;;;;;;18.74;79.32;100054.25;1767109;80;20984;-63
2022/07/22 02:49:34;;;;;;;6.75;4.20;;;;;;;18.72;79.41;100050.05;1714324;83;21083;-62
2022/07/22 02:52:04;;;;;;;6.85;4.15;;;;;;;18.68;79.55;100056.67;1724542;82;21067;-61
2022/07/22 02:54:34;;;;;;;7.62;4.37;;;;;;;18.65;79.56;100049.71;1724490;83;21037;-62
2022/07/22 02:57:05;;;;;;;7.45;4.28;;;;;;;18.63;79.65;100047.74;1735218;82;21016;-62
2022/07/22 02:59:34;;;;;;;6.15;4.15;;;;;;;18.63;79.66;100047.74;1736926;80;21067;-61
2022/07/22 03:02:05;;;;;;;9.78;4.33;;;;;;;18.64;79.68;100056.91;1749896;82;21508;-62
2022/07/22 03:04:36;;;;;;;6.22;3.90;;;;;;;18.65;79.68;100059.97;1749872;82;21086;-62
2022/07/22 03:07:07;;;;;;;7.08;3.95;;;;;;;18.67;79.68;100057.22;1750542;80;21474;-61
2022/07/22 03:09:38;;;;;;;5.28;4.00;;;;;;;18.68;79.62;100063.06;1749899;82;21015;-62
2022/07/22 03:12:10;;;;;;;9.20;3.95;;;;;;;18.71;79.57;100059.48;1749964;82;21471;-63
2022/07/22 03:14:42;;;;;;;7.45;3.87;;;;;;;18.72;79.43;100059.22;1749847;81;21070;-61
2022/07/22 03:17:12;;;;;;;5.90;4.08;;;;;;;18.73;79.38;100051.73;1748473;80;21024;-61
2022/07/22 03:19:42;;;;;;;11.48;4.60;;;;;;;18.72;79.34;100059.77;1710167;83;21028;-62
2022/07/22 03:22:12;;;;;;;6.95;3.90;;;;;;;18.67;79.47;100053.61;1744555;82;21011;-63
2022/07/22 03:24:41;;;;;;;6.97;4.42;;;;;;;18.67;79.50;100057.78;1719756;83;21434;-62
2022/07/22 03:27:11;;;;;;;6.75;4.33;;;;;;;18.66;79.46;100059.71;1743741;80;21090;-61
2022/07/22 03:29:41;;;;;;;8.83;4.08;;;;;;;18.71;79.43;100074.20;1729082;82;20987;-61
2022/07/22 03:32:11;;;;;;;5.12;4.15;;;;;;;18.77;79.27;100072.32;1749739;82;21086;-64
2022/07/22 03:34:43;;;;;;;7.30;4.40;;;;;;;18.78;79.11;100064.28;1749766;81;21015;-63
2022/07/22 03:37:15;;;;;;;7.33;4.40;;;;;;;18.80;79.05;100055.98;1752009;80;21081;-62
2022/07/22 03:39:45;;;;;;;8.85;4.42;;;;;;;18.83;79.00;100054.08;1728181;83;21032;-62
2022/07/22 03:42:14;;;;;;;7.12;4.15;;;;;;;18.88;78.83;100057.48;1755621;80;21063;-61
2022/07/22 03:44:46;;;;;;;5.70;4.10;;;;;;;18.90;78.62;100060.84;1780031;80;20979;-61
2022/07/22 03:47:22;;;;;;;10.10;4.20;;;;;;;18.95;78.52;100063.68;1783503;80;21023;-62
2022/07/22 03:49:53;;;;;;;6.97;4.70;;;;;;;18.99;78.30;100059.28;1742765;82;21306;-61
2022/07/22 03:52:25;;;;;;;9.85;4.60;;;;;;;19.02;78.10;100063.47;1731616;81;21487;-61
2022/07/22 03:54:56;;;;;;;9.03;3.92;;;;;;;19.03;78.00;100065.98;1731558;82;21016;-62
2022/07/22 03:57:29;;;;;;;7.40;4.10;;;;;;;19.04;77.72;100064.88;1743229;80;21060;-62
2022/07/22 04:00:05;;;;;;;6.42;3.70;;;;;;;19.03;77.61;100067.92;1763668;80;21106;-63
2022/07/22 04:02:37;;;;;;;6.75;4.08;;;;;;;19.00;77.54;100067.34;1779699;80;21435;-62
2022/07/22 04:05:07;;;;;;;6.58;4.00;;;;;;;19.00;77.66;100076.23;1769734;80;21078;-62
2022/07/22 04:07:37;;;;;;;8.33;4.17;;;;;;;19.03;77.66;100084.03;1749826;82;21007;-61
2022/07/22 04:10:09;;;;;;;6.78;3.85;;;;;;;19.05;77.56;100082.38;1731487;79;21507;-62
2022/07/22 04:12:40;;;;;;;6.25;4.08;;;;;;;19.08;77.48;100089.64;1780634;80;21063;-62
2022/07/22 04:15:19;;;;;;;6.95;4.42;;;;;;;19.07;77.36;100081.02;1779111;80;21032;-61
2022/07/22 04:17:48;;;;;;;8.30;5.05;;;;;;;19.09;77.36;100079.38;1782555;80;21007;-62
2022/07/22 04:20:18;;;;;;;8.20;4.55;;;;;;;19.10;77.35;100079.11;1778437;80;21004;-61
2022/07/22 04:23:06;;;;;;;8.60;4.70;;;;;;;19.12;77.30;100076.91;1776169;81;21031;-62
2022/07/22 04:25:37;;;;;;;8.83;4.85;;;;;;;19.13;77.24;100086.92;1727437;82;21051;-62
2022/07/22 04:28:07;;;;;;;9.83;4.08;;;;;;;19.13;77.18;100085.53;1731260;83;21012;-62
2022/07/22 04:30:40;;;;;;;10.13;4.30;;;;;;;19.10;77.04;100080.50;1732079;82;20996;-62
2022/07/22 04:33:12;;;;;;;8.93;5.08;;;;;;;19.10;77.27;100084.66;1743933;81;21464;-63
2022/07/22 04:35:43;;;;;;;8.93;4.40;;;;;;;19.15;77.25;100081.10;1761245;80;20997;-63
2022/07/22 04:38:17;;;;;;;7.90;4.15;;;;;;;19.19;77.04;100080.87;1740710;82;21478;-62
2022/07/22 04:40:58;;;;;;;9.55;3.85;;;;;;;19.24;76.77;100087.86;1702952;84;21421;-62
2022/07/22 04:43:28;;;;;;;6.33;3.98;;;;;;;19.29;76.64;100094.31;1731617;82;21064;-62
2022/07/22 04:45:59;;;;;;;7.62;4.40;;;;;;;19.36;76.40;100096.03;1720370;83;21023;-64
2022/07/22 04:48:30;;;;;;;5.95;4.05;;;;;;;19.45;76.23;100094.45;1724588;82;21055;-63
2022/07/22 04:51:01;;;;;;;5.37;4.15;;;;;;;19.53;75.72;100090.70;1724607;83;21031;-62
2022/07/22 04:53:33;;;;;;;6.80;4.58;;;;;;;19.55;75.31;100091.83;1724608;83;21082;-62
2022/07/22 04:56:07;;;;;;;9.18;4.83;;;;;;;19.54;75.26;100092.94;1728059;81;21582;-64
2022/07/22 04:58:37;;;;;;;5.10;3.72;;;;;;;19.57;75.20;100095.19;1745075;81;21016;-62
2022/07/22 05:01:07;;;;;;;7.25;3.90;;;;;;;19.62;75.02;100098.02;1765920;81;21087;-62
2022/07/22 05:03:42;;;;;;;10.78;4.95;;;;;;;19.68;74.77;100094.17;1765575;81;21048;-63
2022/07/22 05:06:12;;;;;;;6.92;4.37;;;;;;;19.77;74.56;100089.80;1764705;80;21094;-63
2022/07/22 05:08:45;;;;;;;7.25;4.40;;;;;;;19.94;74.21;100096.05;1765703;81;21016;-63
2022/07/22 05:11:15;;;;;;;5.80;4.20;;;;;;;20.16;73.50;100092.33;1765277;81;21055;-61
2022/07/22 05:13:45;;;;;;;7.40;3.70;;;;;;;20.43;72.85;100093.08;1765941;80;21012;-62
2022/07/22 05:16:16;;;;;;;8.95;4.97;;;;;;;20.73;71.88;100099.90;1765388;81;20976;-62
2022/07/22 05:18:49;;;;;;;5.87;3.90;;;;;;;21.06;70.40;100109.24;1765296;81;21517;-63
2022/07/22 05:21:19;;;;;;;11.28;3.98;;;;;;;21.39;68.57;100102.38;1765315;81;21020;-64
2022/07/22 05:23:49;;;;;;;9.58;5.30;;;;;;;21.60;66.86;100104.66;1765740;81;21036;-62
2022/07/22 05:26:21;;;;;;;6.87;3.87;;;;;;;21.66;65.99;100104.95;1709555;84;21085;-62
2022/07/22 05:28:54;;;;;;;6.08;3.87;;;;;;;21.68;65.35;100105.50;1707257;83;21064;-62
2022/07/22 05:31:24;;;;;;;10.43;4.37;;;;;;;21.68;65.40;100099.92;1672025;85;21062;-62
2022/07/22 05:33:54;;;;;;;6.08;4.05;;;;;;;21.84;65.43;100103.55;1649565;86;21078;-63
2022/07/22 05:36:32;;;;;;;5.92;4.60;;;;;;;22.10;64.88;100101.61;1716818;83;21110;-61
2022/07/22 05:39:01;;;;;;;5.33;3.95;;;;;;;22.35;64.04;100101.59;1717316;83;21012;-63
2022/07/22 05:41:31;;;;;;;4.22;3.60;;;;;;;22.68;62.98;100104.28;1716950;83;21104;-64
2022/07/22 05:44:01;;;;;;;10.13;4.95;;;;;;;23.01;60.97;100106.98;1750186;79;21137;-63
2022/07/22 05:46:31;;;;;;;5.87;4.00;;;;;;;23.24;60.33;100108.26;1752247;82;21022;-62
2022/07/22 05:49:03;;;;;;;6.87;3.90;;;;;;;23.40;59.36;100109.83;1730686;80;21106;-62
2022/07/22 05:51:37;;;;;;;6.03;4.17;;;;;;;23.49;58.63;100111.48;1752260;82;21019;-65
2022/07/22 05:54:07;;;;;;;13.68;4.50;;;;;;;23.59;58.67;100117.03;1697763;82;21079;-64
2022/07/22 05:56:36;;;;;;;7.95;4.15;;;;;;;23.80;58.11;100117.71;1816546;79;21474;-61
2022/07/22 05:59:08;;;;;;;4.17;3.77;;;;;;;24.03;57.01;100116.11;1810345;79;21003;-65
2022/07/22 06:01:39;;;;;;;11.68;4.15;;;;;;;24.18;55.96;100110.41;1810290;79;21074;-63
2022/07/22 06:04:13;;;;;;;7.30;3.77;;;;;;;24.26;55.41;100103.33;1809677;79;21008;-64
2022/07/22 06:06:47;;;;;;;7.17;3.75;;;;;;;24.41;54.91;100103.76;1790734;79;21067;-65
2022/07/22 06:09:18;;;;;;;6.05;3.83;;;;;;;24.51;54.71;100106.45;1753981;80;21016;-63
2022/07/22 06:11:50;;;;;;;8.80;3.40;;;;;;;24.75;54.20;100102.27;1820754;79;21548;-66
2022/07/22 06:14:20;;;;;;;7.00;3.50;;;;;;;24.93;53.11;100110.73;1811355;79;21042;-64
2022/07/22 06:16:52;;;;;;;7.45;3.20;;;;;;;25.14;52.18;100101.50;1809960;79;21050;-63
2022/07/22 06:19:25;;;;;;;5.03;3.05;;;;;;;25.37;51.55;100105.41;1719193;83;21100;-64
2022/07/22 06:21:57;;;;;;;5.10;3.58;;;;;;;25.68;50.57;100097.95;1719080;83;21060;-64
2022/07/22 06:24:27;;;;;;;5.65;3.25;;;;;;;25.98;49.38;100099.41;1714167;83;21640;-65
2022/07/22 06:26:58;;;;;;;6.95;3.02;;;;;;;26.16;48.41;100100.80;1689652;84;21483;-64
2022/07/22 06:29:28;;;;;;;4.70;3.17;;;;;;;26.36;46.80;100098.78;1695236;83;21056;-63
2022/07/22 06:31:58;;;;;;;9.58;3.70;;;;;;;26.35;47.50;100096.54;1694770;84;21047;-64
2022/07/22 06:34:29;;;;;;;4.25;2.67;;;;;;;26.49;47.04;100100.20;1694817;84;21083;-65
2022/07/22 06:37:08;;;;;;;5.70;2.45;;;;;;;26.69;45.96;100091.13;1712399;82;21466;-63
2022/07/22 06:39:40;;;;;;;6.53;2.70;;;;;;;26.72;45.31;100101.74;1751860;80;21027;-64
2022/07/22 06:42:14;;;;;;;3.22;2.42;;;;;;;26.82;44.83;100100.96;1789231;79;21015;-64
2022/07/22 06:44:48;;;;;;;6.80;2.50;;;;;;;27.06;44.05;100106.95;1790241;79;21062;-63
2022/07/22 06:47:29;;;;;;;4.25;2.35;;;;;;;27.19;43.46;100107.51;1763196;80;21087;-63
2022/07/22 06:50:01;;;;;;;3.92;2.20;;;;;;;27.32;42.59;100105.27;1737746;82;21031;-63
2022/07/22 06:52:35;;;;;;;3.15;2.33;;;;;;;27.46;42.56;100105.23;1650638;86;21090;-65
2022/07/22 06:55:09;;;;;;;6.58;2.42;;;;;;;27.47;41.99;100106.89;1650970;86;21107;-63
2022/07/22 06:57:40;;;;;;;3.52;2.10;;;;;;;27.45;41.57;100110.60;1676388;84;21101;-65
2022/07/22 07:00:12;;;;;;;7.22;4.00;;;;;;;27.50;41.00;100116.69;1677817;85;21067;-65
2022/07/22 07:02:47;;;;;;;3.47;2.62;;;;;;;27.59;40.80;100118.42;1650985;85;21071;-64
2022/07/22 07:05:16;;;;;;;5.50;3.12;;;;;;;27.60;41.60;100123.48;1677679;85;21095;-65
2022/07/22 07:07:49;;;;;;;3.65;2.27;;;;;;;27.60;41.60;100123.48;1675294;84;21055;-65
2022/07/22 07:10:21;;;;;;;2.58;2.00;;;;;;;27.91;40.62;100123.59;1681990;81;21436;-64
2022/07/22 07:12:57;;;;;;;2.50;2.20;;;;;;;27.91;40.62;100123.59;1722501;82;21087;-63
2022/07/22 07:15:41;;;;;;;8.30;2.20;;;;;;;28.21;39.64;100122.00;1796483;79;20996;-64
2022/07/22 07:18:11;;;;;;;3.58;1.98;;;;;;;28.20;38.47;100111.89;1797259;79;21008;-64
2022/07/22 07:20:44;;;;;;;5.22;2.00;;;;;;;28.20;38.47;100111.89;1775830;80;20992;-65
2022/07/22 07:23:15;;;;;;;5.28;2.30;;;;;;;28.19;38.73;100118.10;1743147;81;21025;-65
2022/07/22 07:25:48;;;;;;;8.85;2.25;;;;;;;28.17;39.17;100128.03;1706372;83;21497;-65
2022/07/22 07:28:19;;;;;;;4.10;1.90;;;;;;;28.24;38.28;100119.41;1669847;84;21567;-64
2022/07/22 07:30:59;;;;;;;6.03;1.77;;;;;;;28.33;37.83;100118.05;1742438;80;21497;-62
2022/07/22 07:33:31;;;;;;;3.98;1.80;;;;;;;28.43;37.06;100123.98;1762912;81;21082;-65
2022/07/22 07:36:02;;;;;;;2.58;1.70;;;;;;;28.46;37.45;100122.76;1762658;81;21502;-62
2022/07/22 07:38:35;;;;;;;3.17;1.92;;;;;;;28.69;37.60;100127.22;1725826;83;21091;-64
2022/07/22 07:41:08;;;;;;;2.27;2.00;;;;;;;28.88;36.67;100125.58;1726349;83;21001;-65
2022/07/22 07:43:40;;;;;;;1.90;1.70;;;;;;;28.96;36.16;100138.87;1802292;79;21041;-63
2022/07/22 07:46:11;;;;;;;4.80;1.65;;;;;;;28.93;36.00;100128.25;1777422;79;21117;-63
2022/07/22 07:48:45;;;;;;;2.77;1.70;;;;;;;29.08;35.54;100128.95;1749643;82;21078;-64
2022/07/22 07:51:18;;;;;;;5.30;1.80;;;;;;;29.15;35.26;100127.31;1781487;79;21012;-62
2022/07/22 07:53:50;;;;;;;5.60;2.50;;;;;;;29.25;35.05;100134.05;1759919;79;21012;-63
2022/07/22 07:56:23;;;;;;;2.58;1.77;;;;;;;29.20;35.22;100135.63;1766152;80;21393;-64
2022/07/22 07:58:55;;;;;;;2.17;1.45;;;;;;;29.15;35.13;100131.54;1778009;80;21094;-64
2022/07/22 08:01:28;;;;;;;3.58;1.55;;;;;;;29.27;35.00;100134.59;1753647;80;21011;-64
2022/07/22 08:04:03;;;;;;;5.15;1.80;;;;;;;29.38;34.47;100135.69;1779661;80;21078;-63
2022/07/22 08:06:37;;;;;;;3.70;1.45;;;;;;;29.46;33.67;100141.95;1714672;83;21576;-66
2022/07/22 08:09:10;;;;;;;2.80;1.82;;;;;;;29.55;34.28;100137.15;1762822;80;21020;-64
2022/07/22 08:11:44;;;;;;;3.42;1.67;;;;;;;29.71;34.20;100151.03;1756533;81;21521;-63
2022/07/22 08:14:29;;;;;;;6.30;2.15;;;;;;;29.93;33.93;100146.65;1673867;82;21110;-68
2022/07/22 08:17:09;;;;;;;6.78;1.70;;;;;;;29.89;33.96;100138.56;1734472;82;21027;-63
2022/07/22 08:19:50;;;;;;;3.37;1.67;;;;;;;29.83;33.92;100143.30;1710883;83;21067;-62
2022/07/22 08:22:22;;;;;;;4.62;1.75;;;;;;;29.79;33.99;100153.61;1716720;83;21039;-66
2022/07/22 08:24:54;;;;;;;3.83;1.50;;;;;;;29.76;34.06;100141.56;1688158;84;21087;-65
2022/07/22 08:27:28;;;;;;;6.75;1.92;;;;;;;29.55;33.75;100142.21;1685590;84;21013;-63
2022/07/22 08:29:58;;;;;;;2.77;1.75;;;;;;;29.45;34.32;100153.00;1652195;85;21088;-65
2022/07/22 08:32:27;;;;;;;3.77;1.80;;;;;;;29.47;34.53;100149.27;1632202;86;21127;-66
2022/07/22 08:35:02;;;;;;;3.10;1.85;;;;;;;29.52;34.24;100144.28;1663869;85;21142;-64
2022/07/22 08:37:37;;;;;;;8.45;3.17;;;;;;;29.53;34.55;100151.59;1660382;83;21125;-65
2022/07/22 08:40:07;;;;;;;2.37;2.00;;;;;;;29.63;33.93;100144.21;1764042;80;21068;-68
2022/07/22 08:42:42;;;;;;;4.10;1.90;;;;;;;29.58;34.14;100151.44;1749446;82;21074;-64
2022/07/22 08:45:15;;;;;;;6.55;2.30;;;;;;;29.49;33.67;100145.53;1732539;83;21088;-64
2022/07/22 08:47:52;;;;;;;2.85;1.67;;;;;;;29.37;33.96;100150.95;1729191;82;21016;-63
2022/07/22 08:50:36;;;;;;;3.95;1.70;;;;;;;29.31;34.59;100151.12;1692552;81;21012;-66
2022/07/22 08:53:12;;;;;;;3.80;1.70;;;;;;;29.27;34.03;100150.11;1727183;83;21051;-65
2022/07/22 08:55:47;;;;;;;4.90;1.55;;;;;;;29.23;33.61;100142.02;1728988;83;21455;-64
2022/07/22 08:58:21;;;;;;;;;;;;;;;29.10;34.48;100159.08;1716910;82;21470;-64
2022/07/22 09:01:13;;;;;;;4.33;1.57;;;;;;;29.07;34.39;100150.69;1711683;83;20182;-66
2022/07/22 09:03:55;;;;;;;5.17;1.92;;;;;;;29.14;33.96;100147.39;1730972;82;21088;-64
2022/07/22 09:06:37;;;;;;;3.62;1.57;;;;;;;29.25;33.34;100150.98;1678277;84;21044;-66
2022/07/22 09:09:09;;;;;;;4.28;1.90;;;;;;;29.28;33.72;100150.94;1673588;85;21089;-64
2022/07/22 09:12:12;;;;;;;8.05;3.02;;;;;;;29.30;33.47;100142.39;1712461;83;21119;-65
2022/07/22 09:15:03;;;;;;;2.83;1.45;;;;;;;29.15;33.68;100152.70;1728818;82;20981;-64
2022/07/22 09:17:48;;;;;;;5.47;2.12;;;;;;;29.06;33.88;100153.27;1727750;83;21060;-64
2022/07/22 09:20:37;;;;;;;2.92;1.55;;;;;;;28.97;34.00;100150.99;1731782;83;21102;-67
2022/07/22 09:23:27;;;;;;;2.47;1.50;;;;;;;28.85;34.05;100149.37;1728522;83;21456;-69
2022/07/22 09:25:59;;;;;;;2.85;1.60;;;;;;;28.60;34.54;100148.87;1692946;81;21032;-67
2022/07/22 09:28:30;;;;;;;2.67;1.32;;;;;;;28.51;34.68;100150.81;1759640;80;21086;-66
2022/07/22 09:31:29;;;;;;;2.65;1.42;;;;;;;28.47;34.73;100154.02;1759299;81;21028;-65
2022/07/22 09:34:03;;;;;;;3.75;1.60;;;;;;;28.36;35.00;100158.27;1758535;81;21091;-66
2022/07/22 09:36:35;;;;;;;5.30;2.60;;;;;;;28.19;35.60;100160.36;1759125;81;20993;-67
2022/07/22 09:39:10;;;;;;;3.95;1.50;;;;;;;28.10;35.29;100163.13;1737197;81;21044;-65
2022/07/22 09:41:58;;;;;;;4.25;1.57;;;;;;;28.03;35.46;100166.13;1692923;82;21020;-70
2022/07/22 09:44:32;;;;;;;2.45;1.47;;;;;;;27.79;35.57;100170.62;1698886;83;21516;-69
2022/07/22 09:47:04;;;;;;;2.50;1.50;;;;;;;27.63;35.23;100170.16;1776409;79;21007;-69
2022/07/22 09:49:53;;;;;;;3.02;1.37;;;;;;;27.51;35.48;100157.18;1808890;79;21012;-67
2022/07/22 09:52:42;;;;;;;5.25;1.67;;;;;;;27.50;35.63;100156.09;1809340;79;21513;-67
2022/07/22 09:55:18;;;;;;;6.40;1.50;;;;;;;27.50;35.38;100168.17;1799957;79;21039;-69
2022/07/22 09:57:50;;;;;;;4.97;1.75;;;;;;;27.46;35.38;100159.53;1759593;81;21420;-67
2022/07/22 10:00:25;;;;;;;2.75;1.90;;;;;;;27.48;35.57;100162.86;1738974;81;21105;-67
2022/07/22 10:03:04;;;;;;;2.15;1.50;;;;;;;27.48;35.28;100168.50;1752935;81;21070;-68
2022/07/22 10:05:40;;;;;;;2.22;1.37;;;;;;;27.45;35.32;100168.30;1738045;81;21049;-67
2022/07/22 10:08:10;;;;;;;3.27;1.67;;;;;;;27.36;35.27;100168.78;1750920;81;21106;-66
2022/07/22 10:10:40;;;;;;;4.80;1.40;;;;;;;27.26;35.52;100162.77;1753265;79;21023;-69
2022/07/22 10:13:17;;;;;;;2.42;1.30;;;;;;;27.22;35.38;100163.14;1809963;79;20975;-67
2022/07/22 10:15:48;;;;;;;2.62;1.40;;;;;;;27.17;35.61;100164.66;1786172;79;21023;-66
2022/07/22 10:18:31;;;;;;;2.62;1.60;;;;;;;27.10;36.01;100166.48;1779110;79;21061;-68
2022/07/22 10:21:09;;;;;;;2.42;1.35;;;;;;;27.03;36.38;100159.05;1746965;82;21055;-69
2022/07/22 10:24:09;;;;;;;1.98;1.42;;;;;;;26.98;36.26;100152.69;1751797;82;21439;-69
2022/07/22 10:26:50;;;;;;;1.98;1.15;;;;;;;26.94;36.49;100163.70;1762374;79;21008;-69
2022/07/22 10:29:47;;;;;;;4.10;1.52;;;;;;;26.94;36.34;100164.27;1749128;80;21086;-68
2022/07/22 10:32:22;;;;;;;1.85;1.42;;;;;;;26.87;36.29;100168.08;1794089;79;21126;-68
2022/07/22 10:35:20;;;;;;;2.17;1.20;;;;;;;26.77;36.33;100162.91;1799454;78;21509;-67
2022/07/22 10:37:54;;;;;;;2.30;1.25;;;;;;;26.77;36.62;100175.56;1778534;80;21065;-67
2022/07/22 10:40:31;;;;;;;1.92;1.40;;;;;;;26.74;36.44;100167.75;1753703;81;20999;-67
2022/07/22 10:43:08;;;;;;;4.37;1.35;;;;;;;26.75;36.61;100168.59;1779293;79;21466;-67
2022/07/22 10:45:47;;;;;;;1.27;1.15;;;;;;;26.78;37.04;100172.18;1797372;79;21087;-68
2022/07/22 10:48:26;;;;;;;5.10;1.62;;;;;;;26.75;36.96;100172.80;1791270;80;21083;-68
2022/07/22 10:51:14;;;;;;;6.87;1.67;;;;;;;26.70;37.18;100172.33;1759163;80;21020;-66
2022/07/22 10:53:55;;;;;;;2.80;1.70;;;;;;;26.69;37.27;100169.26;1725577;81;21098;-67
2022/07/22 10:56:31;;;;;;;3.10;1.40;;;;;;;26.65;37.37;100175.20;1744554;81;21020;-63
2022/07/22 10:59:21;;;;;;;2.80;1.42;;;;;;;26.67;37.53;100162.28;1759588;81;21063;-67
2022/07/22 11:01:53;;;;;;;4.37;1.30;;;;;;;26.72;37.34;100163.02;1758872;81;21082;-65
2022/07/22 11:04:25;;;;;;;2.87;1.42;;;;;;;26.77;37.35;100167.13;1743864;81;21042;-65
2022/07/22 11:07:04;;;;;;;4.10;1.30;;;;;;;26.81;37.19;100178.59;1764989;80;21015;-67
2022/07/22 11:09:36;;;;;;;6.37;1.57;;;;;;;26.77;37.38;100177.55;1786388;79;22173;-64
2022/07/22 11:12:12;;;;;;;3.87;1.37;;;;;;;26.73;37.42;100160.47;1790871;79;21067;-68
2022/07/22 11:14:46;;;;;;;5.72;1.50;;;;;;;26.66;37.30;100169.02;1769166;80;21091;-67
2022/07/22 11:17:23;;;;;;;7.03;1.60;;;;;;;26.62;37.53;100168.80;1791188;80;21012;-68
2022/07/22 11:19:56;;;;;;;2.98;1.30;;;;;;;26.65;37.56;100172.97;1789173;79;21004;-67
2022/07/22 11:22:28;;;;;;;5.72;1.85;;;;;;;26.73;37.27;100166.09;1784169;80;21571;-67
2022/07/22 11:25:07;;;;;;;3.35;1.57;;;;;;;26.73;36.93;100174.52;1781386;80;21019;-68
2022/07/22 11:27:38;;;;;;;2.60;1.12;;;;;;;26.72;37.07;100172.86;1761833;80;21486;-67
2022/07/22 11:30:11;;;;;;;3.25;1.40;;;;;;;26.73;37.04;100168.90;1780689;80;21028;-68
2022/07/22 11:32:44;;;;;;;2.27;1.32;;;;;;;26.70;37.20;100173.73;1777137;80;21086;-67
2022/07/22 11:35:19;;;;;;;1.50;1.33;;;;;;;26.70;37.14;100168.11;1782789;79;20992;-69
2022/07/22 11:38:00;;;;;;;2.50;1.50;;;;;;;26.70;37.09;100170.09;1776339;80;21059;-67
2022/07/22 11:40:36;;;;;;;2.58;1.40;;;;;;;26.68;36.92;100161.97;1776844;80;20995;-66
2022/07/22 11:43:08;;;;;;;5.20;1.30;;;;;;;26.68;37.34;100166.19;1729417;81;21040;-68
2022/07/22 11:45:57;;;;;;;2.45;1.42;;;;;;;26.68;37.09;100161.13;1774418;80;21540;-67
2022/07/22 11:48:28;;;;;;;3.40;1.22;;;;;;;26.68;36.81;100162.55;1764612;80;21016;-67
2022/07/22 11:51:05;;;;;;;3.25;1.32;;;;;;;26.63;37.07;100159.22;1756909;80;21054;-69
2022/07/22 11:53:35;;;;;;;4.53;1.70;;;;;;;26.65;36.96;100167.34;1797739;79;21027;-68